createdAt,value
2016-05-24T00:00:31.607Z,24.96
2016-05-24T00:01:31.875Z,25
2016-05-24T00:02:31.629Z,25
2016-05-24T00:03:31.631Z,24.99
2016-05-24T00:04:31.634Z,24.98
2016-05-24T00:05:31.636Z,24.99
2016-05-24T00:06:31.654Z,24.98
2016-05-24T00:07:31.656Z,24.99
2016-05-24T00:08:31.659Z,25.05
2016-05-24T00:09:31.662Z,25.03
2016-05-24T00:10:31.665Z,24.96
2016-05-24T00:11:31.683Z,24.93
2016-05-24T00:12:31.686Z,25
2016-05-24T00:13:31.689Z,25.03
2016-05-24T00:14:31.707Z,24.95
2016-05-24T00:15:31.710Z,24.96
2016-05-24T00:16:31.697Z,24.96
2016-05-24T00:17:31.731Z,24.84
2016-05-24T00:18:31.718Z,24.9
2016-05-24T00:19:31.721Z,24.96
2016-05-24T00:20:31.739Z,24.88
2016-05-24T00:21:31.742Z,24.87
2016-05-24T00:22:31.744Z,24.96
2016-05-24T00:23:31.747Z,24.88
2016-05-24T00:24:31.765Z,24.91
2016-05-24T00:25:31.768Z,24.91
2016-05-24T00:26:31.457Z,24.93
2016-05-24T00:27:31.618Z,24.95
2016-05-24T00:28:31.776Z,24.88
2016-05-24T00:29:31.935Z,24.91
2016-05-24T00:30:31.796Z,24.95
2016-05-24T00:31:31.644Z,24.91
2016-05-24T00:32:47.443Z,24.99
2016-05-24T00:33:31.821Z,25
2016-05-24T00:34:31.807Z,24.98
2016-05-24T00:35:31.842Z,25.14
2016-05-24T00:36:31.828Z,25.09
2016-05-24T00:37:31.831Z,25.08
2016-05-24T00:38:31.850Z,25.17
2016-05-24T00:39:31.837Z,25.08
2016-05-24T00:40:31.856Z,25.09
2016-05-24T00:41:31.873Z,25.1
2016-05-24T00:42:31.861Z,25.09
2016-05-24T00:43:31.894Z,25.05
2016-05-24T00:44:32.084Z,25.08
2016-05-24T00:45:31.900Z,25.08
2016-05-24T00:46:31.887Z,25.13
2016-05-24T00:47:31.905Z,25.13
2016-05-24T00:48:31.924Z,25.06
2016-05-24T00:49:31.911Z,25.1
2016-05-24T00:50:31.914Z,25.05
2016-05-24T00:51:31.916Z,25.13
2016-05-24T00:52:31.919Z,25.08
2016-05-24T00:53:31.937Z,25.14
2016-05-24T00:54:31.955Z,25.1
2016-05-24T00:55:31.943Z,25.09
2016-05-24T00:56:31.961Z,25.13
2016-05-24T00:57:31.948Z,25.02
2016-05-24T00:58:31.966Z,25.02
2016-05-24T00:59:32.484Z,25.05
2016-05-24T01:00:31.982Z,25
2016-05-24T01:01:32.029Z,25
2016-05-24T01:02:31.904Z,25
2016-05-24T01:03:31.936Z,25.05
2016-05-24T01:04:32.122Z,25
2016-05-24T01:05:32.177Z,25.05
2016-05-24T01:06:32.018Z,25.02
2016-05-24T01:07:32.186Z,25
2016-05-24T01:08:32.216Z,24.98
2016-05-24T01:09:32.073Z,24.99
2016-05-24T01:10:32.239Z,25.02
2016-05-24T01:11:32.245Z,25
2016-05-24T01:12:32.096Z,25.03
2016-05-24T01:13:32.258Z,24.98
2016-05-24T01:14:32.343Z,24.99
2016-05-24T01:15:32.287Z,25
2016-05-24T01:16:32.290Z,24.99
2016-05-24T01:17:32.309Z,24.99
2016-05-24T01:18:32.157Z,25
2016-05-24T01:19:32.316Z,24.96
2016-05-24T01:20:32.320Z,25.03
2016-05-24T01:21:32.168Z,25.02
2016-05-24T01:22:32.342Z,24.98
2016-05-24T01:23:32.346Z,24.96
2016-05-24T01:24:32.207Z,24.99
2016-05-24T01:25:32.352Z,24.99
2016-05-24T01:26:32.354Z,25
2016-05-24T01:27:32.217Z,24.99
2016-05-24T01:28:32.422Z,24.98
2016-05-24T01:29:32.723Z,25.02
2016-05-24T01:30:32.382Z,25.03
2016-05-24T01:31:32.401Z,25
2016-05-24T01:32:32.404Z,25
2016-05-24T01:33:32.406Z,24.95
2016-05-24T01:34:32.424Z,24.95
2016-05-24T01:35:32.411Z,25.02
2016-05-24T01:36:32.413Z,25.06
2016-05-24T01:37:32.433Z,25.05
2016-05-24T01:38:32.280Z,25
2016-05-24T01:39:32.438Z,25.09
2016-05-24T01:40:32.456Z,25.03
2016-05-24T01:41:32.458Z,25.05
2016-05-24T01:42:32.461Z,25.13
2016-05-24T01:43:32.354Z,25.08
2016-05-24T01:44:32.327Z,25.1
2016-05-24T01:45:32.516Z,25.15
2016-05-24T01:46:32.504Z,25.08
2016-05-24T01:47:32.334Z,25.03
2016-05-24T01:48:32.509Z,25.17
2016-05-24T01:49:32.355Z,25.1
2016-05-24T01:50:32.515Z,25.06
2016-05-24T01:51:32.532Z,25.14
2016-05-24T01:52:32.379Z,25.09
2016-05-24T01:53:32.537Z,25.06
2016-05-24T01:54:32.540Z,25.08
2016-05-24T01:55:32.543Z,25.06
2016-05-24T01:56:32.546Z,25.05
2016-05-24T01:57:32.548Z,25.05
2016-05-24T01:58:32.614Z,25.09
2016-05-24T01:59:32.664Z,25.15
2016-05-24T02:00:32.589Z,25.13
2016-05-24T02:01:32.575Z,25.09
2016-05-24T02:02:32.594Z,25.1
2016-05-24T02:03:32.580Z,25.06
2016-05-24T02:04:32.599Z,25.1
2016-05-24T02:05:32.601Z,25.06
2016-05-24T02:06:32.620Z,25.08
2016-05-24T02:07:32.623Z,25.03
2016-05-24T02:08:32.625Z,25.1
2016-05-24T02:09:32.627Z,25.05
2016-05-24T02:10:32.646Z,25.02
2016-05-24T02:11:32.649Z,25.13
2016-05-24T02:12:32.652Z,25.15
2016-05-24T02:13:32.655Z,24.96
2016-05-24T02:14:32.672Z,24.99
2016-05-24T02:15:32.691Z,25.05
2016-05-24T02:16:32.677Z,25.02
2016-05-24T02:17:32.680Z,24.98
2016-05-24T02:18:32.683Z,24.99
2016-05-24T02:19:32.701Z,25
2016-05-24T02:20:32.705Z,25.05
2016-05-24T02:21:32.566Z,25.09
2016-05-24T02:22:32.709Z,24.96
2016-05-24T02:23:32.712Z,25.05
2016-05-24T02:24:32.731Z,24.99
2016-05-24T02:25:32.734Z,24.98
2016-05-24T02:26:32.736Z,24.99
2016-05-24T02:27:32.739Z,25.05
2016-05-24T02:28:32.601Z,24.95
2016-05-24T02:29:32.760Z,24.96
2016-05-24T02:30:32.762Z,25.03
2016-05-24T02:31:32.781Z,24.91
2016-05-24T02:32:32.783Z,25
2016-05-24T02:33:32.786Z,24.91
2016-05-24T02:34:32.788Z,24.87
2016-05-24T02:35:32.808Z,24.9
2016-05-24T02:36:32.653Z,24.98
2016-05-24T02:37:32.797Z,24.84
2016-05-24T02:38:32.815Z,24.93
2016-05-24T02:39:32.818Z,24.95
2016-05-24T02:40:32.821Z,24.93
2016-05-24T02:41:32.824Z,24.87
2016-05-24T02:42:32.842Z,24.93
2016-05-24T02:43:32.844Z,24.83
2016-05-24T02:44:32.862Z,24.84
2016-05-24T02:45:32.771Z,24.88
2016-05-24T02:46:32.712Z,24.91
2016-05-24T02:47:32.918Z,24.9
2016-05-24T02:48:32.780Z,24.85
2016-05-24T02:49:32.782Z,24.83
2016-05-24T02:50:32.941Z,24.84
2016-05-24T02:51:32.740Z,24.84
2016-05-24T02:52:32.743Z,24.88
2016-05-24T02:53:32.949Z,24.81
2016-05-24T02:54:33.046Z,24.68
2016-05-24T02:55:32.923Z,24.77
2016-05-24T02:56:32.770Z,24.83
2016-05-24T02:57:32.929Z,24.76
2016-05-24T02:58:32.948Z,24.73
2016-05-24T02:59:32.965Z,24.69
2016-05-24T03:00:32.953Z,24.76
2016-05-24T03:01:32.955Z,24.73
2016-05-24T03:02:32.958Z,24.68
2016-05-24T03:03:32.961Z,24.78
2016-05-24T03:04:32.979Z,24.73
2016-05-24T03:05:32.981Z,24.69
2016-05-24T03:06:33.000Z,24.65
2016-05-24T03:07:32.847Z,24.67
2016-05-24T03:08:33.005Z,24.64
2016-05-24T03:09:33.008Z,24.64
2016-05-24T03:10:33.027Z,24.65
2016-05-24T03:11:33.013Z,24.69
2016-05-24T03:12:33.032Z,24.61
2016-05-24T03:13:33.034Z,24.73
2016-05-24T03:14:32.896Z,24.68
2016-05-24T03:15:33.040Z,24.55
2016-05-24T03:16:33.058Z,24.58
2016-05-24T03:17:33.046Z,24.6
2016-05-24T03:18:33.079Z,24.62
2016-05-24T03:19:33.081Z,24.57
2016-05-24T03:20:33.068Z,24.58
2016-05-24T03:21:32.931Z,24.53
2016-05-24T03:22:33.105Z,24.53
2016-05-24T03:23:33.093Z,24.55
2016-05-24T03:24:32.954Z,24.61
2016-05-24T03:25:32.957Z,24.58
2016-05-24T03:26:33.116Z,24.6
2016-05-24T03:27:33.118Z,24.62
2016-05-24T03:28:32.965Z,24.69
2016-05-24T03:29:33.140Z,24.69
2016-05-24T03:30:33.158Z,24.69
2016-05-24T03:31:32.989Z,24.68
2016-05-24T03:32:33.148Z,24.68
2016-05-24T03:33:33.150Z,24.64
2016-05-24T03:34:33.153Z,24.65
2016-05-24T03:35:33.172Z,24.68
2016-05-24T03:36:33.174Z,24.68
2016-05-24T03:37:33.053Z,24.62
2016-05-24T03:38:33.195Z,24.65
2016-05-24T03:39:33.198Z,24.65
2016-05-24T03:40:33.044Z,24.6
2016-05-24T03:41:33.203Z,24.64
2016-05-24T03:42:33.205Z,24.62
2016-05-24T03:43:33.241Z,24.67
2016-05-24T03:44:33.227Z,24.6
2016-05-24T03:45:33.277Z,24.65
2016-05-24T03:46:33.263Z,24.6
2016-05-24T03:47:33.079Z,24.53
2016-05-24T03:48:33.253Z,24.61
2016-05-24T03:49:33.257Z,24.58
2016-05-24T03:50:33.102Z,24.64
2016-05-24T03:51:33.121Z,24.65
2016-05-24T03:52:33.123Z,24.58
2016-05-24T03:53:33.268Z,24.52
2016-05-24T03:54:33.285Z,24.65
2016-05-24T03:55:33.132Z,24.49
2016-05-24T03:56:33.290Z,24.53
2016-05-24T03:57:33.309Z,24.53
2016-05-24T03:58:33.312Z,24.62
2016-05-24T03:59:33.454Z,24.55
2016-05-24T04:00:33.207Z,24.55
2016-05-24T04:01:33.335Z,24.52
2016-05-24T04:02:33.337Z,24.55
2016-05-24T04:03:33.356Z,24.53
2016-05-24T04:04:33.343Z,24.58
2016-05-24T04:05:33.362Z,24.64
2016-05-24T04:06:33.380Z,24.58
2016-05-24T04:07:33.383Z,24.49
2016-05-24T04:08:33.369Z,24.52
2016-05-24T04:09:33.388Z,24.57
2016-05-24T04:10:33.391Z,24.55
2016-05-24T04:11:33.253Z,24.57
2016-05-24T04:12:33.396Z,24.58
2016-05-24T04:13:33.242Z,24.53
2016-05-24T04:14:33.244Z,24.58
2016-05-24T04:15:33.279Z,24.57
2016-05-24T04:16:33.423Z,24.61
2016-05-24T04:17:33.269Z,24.57
2016-05-24T04:18:33.428Z,24.6
2016-05-24T04:19:33.446Z,24.52
2016-05-24T04:20:33.292Z,24.6
2016-05-24T04:21:33.452Z,24.52
2016-05-24T04:22:33.454Z,24.58
2016-05-24T04:23:33.457Z,24.55
2016-05-24T04:24:33.460Z,24.53
2016-05-24T04:25:33.478Z,24.55
2016-05-24T04:26:33.481Z,24.52
2016-05-24T04:27:33.483Z,24.5
2016-05-24T04:28:33.346Z,24.52
2016-05-24T04:29:33.348Z,24.5
2016-05-24T04:30:33.523Z,24.49
2016-05-24T04:31:33.509Z,24.53
2016-05-24T04:33:01.715Z,24.53
2016-05-24T04:33:33.515Z,24.5
2016-05-24T04:34:33.518Z,24.52
2016-05-24T04:35:33.536Z,24.57
2016-05-24T04:36:33.383Z,24.47
2016-05-24T04:37:33.541Z,24.6
2016-05-24T04:38:33.544Z,24.57
2016-05-24T04:39:33.547Z,24.52
2016-05-24T04:40:33.565Z,24.57
2016-05-24T04:41:33.411Z,24.5
2016-05-24T04:42:33.570Z,24.5
2016-05-24T04:43:33.572Z,24.55
2016-05-24T04:44:33.592Z,24.55
2016-05-24T04:45:33.891Z,24.53
2016-05-24T04:46:33.456Z,24.5
2016-05-24T04:47:33.443Z,24.52
2016-05-24T04:48:33.618Z,24.49
2016-05-24T04:49:33.635Z,24.52
2016-05-24T04:50:33.624Z,24.58
2016-05-24T04:51:33.627Z,24.52
2016-05-24T04:52:33.472Z,24.57
2016-05-24T04:53:33.646Z,24.58
2016-05-24T04:54:33.493Z,24.49
2016-05-24T04:55:33.652Z,24.58
2016-05-24T04:56:33.671Z,24.5
2016-05-24T04:57:33.518Z,24.52
2016-05-24T04:58:33.676Z,24.49
2016-05-24T04:59:33.537Z,24.53
2016-05-24T05:00:33.682Z,24.5
2016-05-24T05:01:33.700Z,24.5
2016-05-24T05:02:33.546Z,24.52
2016-05-24T05:03:33.706Z,24.53
2016-05-24T05:04:33.708Z,24.55
2016-05-24T05:05:33.711Z,24.55
2016-05-24T05:06:33.728Z,24.53
2016-05-24T05:07:33.731Z,24.52
2016-05-24T05:08:33.734Z,24.6
2016-05-24T05:09:33.737Z,24.55
2016-05-24T05:10:33.599Z,24.55
2016-05-24T05:11:33.742Z,24.52
2016-05-24T05:12:33.761Z,24.53
2016-05-24T05:13:33.779Z,24.5
2016-05-24T05:14:33.766Z,24.53
2016-05-24T05:15:33.628Z,24.52
2016-05-24T05:16:33.786Z,24.55
2016-05-24T05:17:33.633Z,24.5
2016-05-24T05:18:33.636Z,24.45
2016-05-24T05:19:33.811Z,24.55
2016-05-24T05:20:33.829Z,24.45
2016-05-24T05:21:33.660Z,24.49
2016-05-24T05:22:33.819Z,24.47
2016-05-24T05:23:33.822Z,24.47
2016-05-24T05:24:33.823Z,24.53
2016-05-24T05:25:33.843Z,24.5
2016-05-24T05:26:33.846Z,24.49
2016-05-24T05:27:33.848Z,24.45
2016-05-24T05:28:33.850Z,24.45
2016-05-24T05:29:33.853Z,24.5
2016-05-24T05:30:33.715Z,24.45
2016-05-24T05:31:33.874Z,24.52
2016-05-24T05:32:33.892Z,24.55
2016-05-24T05:33:33.880Z,24.49
2016-05-24T05:34:33.898Z,24.5
2016-05-24T05:35:33.900Z,24.57
2016-05-24T05:36:33.904Z,24.52
2016-05-24T05:37:33.922Z,24.52
2016-05-24T05:38:33.924Z,24.52
2016-05-24T05:39:33.927Z,24.57
2016-05-24T05:40:33.930Z,24.6
2016-05-24T05:41:33.933Z,24.53
2016-05-24T05:42:33.950Z,24.55
2016-05-24T05:43:33.781Z,24.6
2016-05-24T05:44:33.972Z,24.47
2016-05-24T05:45:33.958Z,24.5
2016-05-24T05:46:33.961Z,24.49
2016-05-24T05:47:33.979Z,24.49
2016-05-24T05:48:33.966Z,24.52
2016-05-24T05:49:33.986Z,24.57
2016-05-24T05:50:33.988Z,24.53
2016-05-24T05:51:33.991Z,24.57
2016-05-24T05:52:34.008Z,24.52
2016-05-24T05:53:33.996Z,24.53
2016-05-24T05:54:34.060Z,24.53
2016-05-24T05:55:34.016Z,24.55
2016-05-24T05:56:33.863Z,24.52
2016-05-24T05:57:34.054Z,24.57
2016-05-24T05:58:34.040Z,24.55
2016-05-24T05:59:34.043Z,24.57
2016-05-24T06:00:34.312Z,24.53
2016-05-24T06:01:34.048Z,24.52
2016-05-24T06:02:34.082Z,24.64
2016-05-24T06:03:34.069Z,24.61
2016-05-24T06:04:34.073Z,24.55
2016-05-24T06:05:34.075Z,24.61
2016-05-24T06:06:34.078Z,24.67
2016-05-24T06:07:34.095Z,24.55
2016-05-24T06:08:34.098Z,24.65
2016-05-24T06:09:33.944Z,24.62
2016-05-24T06:10:34.135Z,24.65
2016-05-24T06:11:35.373Z,24.62
2016-05-24T06:12:34.109Z,24.65
2016-05-24T06:13:34.127Z,24.61
2016-05-24T06:14:34.522Z,24.64
2016-05-24T06:15:34.867Z,24.62
2016-05-24T06:16:34.010Z,24.64
2016-05-24T06:17:34.482Z,24.64
2016-05-24T06:18:34.157Z,24.64
2016-05-24T06:19:34.160Z,24.67
2016-05-24T06:20:34.178Z,24.69
2016-05-24T06:21:34.165Z,24.69
2016-05-24T06:22:34.043Z,24.62
2016-05-24T06:23:34.185Z,24.64
2016-05-24T06:24:34.188Z,24.67
2016-05-24T06:25:34.207Z,24.61
2016-05-24T06:26:34.210Z,24.64
2016-05-24T06:27:34.212Z,24.64
2016-05-24T06:28:34.215Z,24.62
2016-05-24T06:29:34.062Z,24.71
2016-05-24T06:30:34.126Z,24.67
2016-05-24T06:31:34.238Z,24.68
2016-05-24T06:32:34.257Z,24.69
2016-05-24T06:33:34.244Z,24.68
2016-05-24T06:34:34.106Z,24.62
2016-05-24T06:35:34.265Z,24.76
2016-05-24T06:36:34.252Z,24.71
2016-05-24T06:37:34.145Z,24.68
2016-05-24T06:38:34.273Z,24.73
2016-05-24T06:39:34.292Z,24.71
2016-05-24T06:40:34.138Z,24.69
2016-05-24T06:41:34.156Z,24.69
2016-05-24T06:42:34.002Z,24.68
2016-05-24T06:43:34.333Z,24.65
2016-05-24T06:44:34.336Z,24.71
2016-05-24T06:45:34.355Z,24.71
2016-05-24T06:46:34.342Z,24.69
2016-05-24T06:47:34.328Z,24.65
2016-05-24T06:48:34.191Z,24.68
2016-05-24T06:49:34.194Z,24.68
2016-05-24T06:50:34.353Z,24.69
2016-05-24T06:51:34.355Z,24.73
2016-05-24T06:52:34.217Z,24.68
2016-05-24T06:53:34.376Z,24.76
2016-05-24T06:54:34.410Z,24.76
2016-05-24T06:55:34.397Z,24.62
2016-05-24T06:56:34.415Z,24.64
2016-05-24T06:57:34.543Z,24.61
2016-05-24T06:58:34.265Z,24.64
2016-05-24T06:59:34.408Z,24.68
2016-05-24T07:00:34.271Z,24.65
2016-05-24T07:01:34.413Z,24.68
2016-05-24T07:02:34.276Z,24.69
2016-05-24T07:03:34.434Z,24.67
2016-05-24T07:04:34.452Z,24.68
2016-05-24T07:05:34.440Z,24.64
2016-05-24T07:06:34.457Z,24.65
2016-05-24T07:07:34.460Z,24.73
2016-05-24T07:08:34.495Z,24.65
2016-05-24T07:09:34.466Z,24.64
2016-05-24T07:10:34.328Z,24.71
2016-05-24T07:11:34.346Z,24.68
2016-05-24T07:12:34.490Z,24.64
2016-05-24T07:13:34.493Z,24.76
2016-05-24T07:14:34.495Z,24.73
2016-05-24T07:15:34.372Z,24.73
2016-05-24T07:16:34.359Z,24.71
2016-05-24T07:17:34.519Z,24.71
2016-05-24T07:18:34.521Z,24.67
2016-05-24T07:19:34.539Z,24.67
2016-05-24T07:20:34.386Z,24.68
2016-05-24T07:21:34.545Z,24.68
2016-05-24T07:22:34.563Z,24.68
2016-05-24T07:23:34.566Z,24.62
2016-05-24T07:24:34.663Z,24.73
2016-05-24T07:25:34.572Z,24.91
2016-05-24T07:26:34.652Z,25.03
2016-05-24T07:27:34.421Z,25.2
2016-05-24T07:28:34.596Z,25.36
2016-05-24T07:29:34.598Z,25.46
2016-05-24T07:30:34.616Z,25.64
2016-05-24T07:31:34.462Z,25.75
2016-05-24T07:32:34.621Z,25.76
2016-05-24T07:33:34.624Z,25.87
2016-05-24T07:34:34.627Z,25.85
2016-05-24T07:35:34.629Z,26.01
2016-05-24T07:36:34.632Z,26.09
2016-05-24T07:37:34.651Z,26.17
2016-05-24T07:38:34.654Z,26.29
2016-05-24T07:39:34.656Z,26.33
2016-05-24T07:40:34.518Z,26.37
2016-05-24T07:41:34.786Z,26.43
2016-05-24T07:42:34.726Z,26.5
2016-05-24T07:43:34.698Z,26.5
2016-05-24T07:44:34.684Z,26.63
2016-05-24T07:45:35.126Z,26.7
2016-05-24T07:46:34.597Z,26.69
2016-05-24T07:47:34.755Z,26.67
2016-05-24T07:48:34.743Z,26.69
2016-05-24T07:49:34.714Z,26.76
2016-05-24T07:50:34.733Z,26.81
2016-05-24T07:51:34.736Z,26.8
2016-05-24T07:52:34.753Z,26.82
2016-05-24T07:53:34.756Z,26.82
2016-05-24T07:54:34.758Z,26.85
2016-05-24T07:55:34.683Z,26.85
2016-05-24T07:56:34.764Z,26.87
2016-05-24T07:57:34.783Z,26.84
2016-05-24T07:58:34.785Z,26.87
2016-05-24T07:59:34.835Z,26.88
2016-05-24T08:00:35.477Z,26.91
2016-05-24T08:01:34.824Z,26.91
2016-05-24T08:02:34.858Z,26.87
2016-05-24T08:03:34.815Z,26.88
2016-05-24T08:04:34.818Z,26.87
2016-05-24T08:05:34.835Z,26.82
2016-05-24T08:06:34.838Z,26.84
2016-05-24T08:07:34.856Z,26.85
2016-05-24T08:08:34.703Z,26.76
2016-05-24T08:09:34.706Z,26.87
2016-05-24T08:10:34.865Z,26.82
2016-05-24T08:11:34.882Z,26.87
2016-05-24T08:12:34.995Z,26.87
2016-05-24T08:13:34.873Z,26.81
2016-05-24T08:14:35.015Z,26.82
2016-05-24T08:15:34.925Z,26.82
2016-05-24T08:16:34.912Z,26.8
2016-05-24T08:17:34.759Z,26.85
2016-05-24T08:18:34.917Z,26.81
2016-05-24T08:19:34.935Z,26.8
2016-05-24T08:20:34.938Z,26.81
2016-05-24T08:21:34.942Z,26.82
2016-05-24T08:22:35.006Z,26.81
2016-05-24T08:23:34.962Z,26.85
2016-05-24T08:24:34.965Z,26.87
2016-05-24T08:25:35.014Z,26.85
2016-05-24T08:26:35.032Z,26.82
2016-05-24T08:27:35.050Z,26.82
2016-05-24T08:28:34.991Z,26.84
2016-05-24T08:29:35.103Z,26.81
2016-05-24T08:30:38.449Z,26.81
2016-05-24T08:31:34.999Z,26.84
2016-05-24T08:32:35.002Z,26.88
2016-05-24T08:33:34.863Z,26.76
2016-05-24T08:34:35.023Z,26.85
2016-05-24T08:35:35.119Z,26.7
2016-05-24T08:36:35.044Z,26.82
2016-05-24T08:37:35.046Z,26.82
2016-05-24T08:38:35.049Z,26.87
2016-05-24T08:39:35.067Z,26.84
2016-05-24T08:40:35.085Z,26.85
2016-05-24T08:41:34.917Z,26.8
2016-05-24T08:42:35.091Z,26.8
2016-05-24T08:43:34.938Z,26.76
2016-05-24T08:44:35.112Z,26.81
2016-05-24T08:45:35.443Z,26.8
2016-05-24T08:46:35.117Z,26.82
2016-05-24T08:47:35.214Z,26.81
2016-05-24T08:48:35.122Z,26.82
2016-05-24T08:49:35.141Z,26.81
2016-05-24T08:50:34.988Z,26.81
2016-05-24T08:51:34.990Z,26.81
2016-05-24T08:52:35.242Z,26.8
2016-05-24T08:53:35.167Z,26.88
2016-05-24T08:54:35.014Z,26.85
2016-05-24T08:55:35.016Z,26.84
2016-05-24T08:56:35.036Z,26.85
2016-05-24T08:57:35.069Z,26.82
2016-05-24T08:58:35.041Z,26.87
2016-05-24T08:59:35.199Z,26.84
2016-05-24T09:00:35.530Z,26.85
2016-05-24T09:01:35.221Z,26.84
2016-05-24T09:02:35.223Z,26.84
2016-05-24T09:03:35.242Z,26.89
2016-05-24T09:04:35.291Z,26.87
2016-05-24T09:05:35.277Z,26.87
2016-05-24T09:06:35.343Z,26.95
2016-05-24T09:07:35.268Z,26.84
2016-05-24T09:08:35.255Z,26.85
2016-05-24T09:09:35.273Z,26.94
2016-05-24T09:10:35.401Z,26.94
2016-05-24T09:11:35.279Z,26.87
2016-05-24T09:12:35.282Z,26.89
2016-05-24T09:13:35.299Z,26.94
2016-05-24T09:14:35.302Z,26.95
2016-05-24T09:15:35.165Z,26.97
2016-05-24T09:16:35.323Z,26.94
2016-05-24T09:17:35.326Z,26.87
2016-05-24T09:18:35.344Z,26.81
2016-05-24T09:19:35.190Z,26.85
2016-05-24T09:20:35.350Z,26.91
2016-05-24T09:21:35.368Z,26.95
2016-05-24T09:22:35.214Z,26.88
2016-05-24T09:23:35.451Z,26.92
2016-05-24T09:24:35.220Z,26.89
2016-05-24T09:25:35.411Z,26.89
2016-05-24T09:26:35.256Z,26.88
2016-05-24T09:27:35.399Z,26.82
2016-05-24T09:28:35.247Z,26.85
2016-05-24T09:29:35.249Z,26.82
2016-05-24T09:30:35.517Z,26.85
2016-05-24T09:31:35.520Z,26.87
2016-05-24T09:32:35.538Z,26.81
2016-05-24T09:33:35.447Z,26.77
2016-05-24T09:34:35.528Z,26.84
2016-05-24T09:35:35.546Z,26.82
2016-05-24T09:36:35.454Z,26.87
2016-05-24T09:37:35.552Z,26.85
2016-05-24T09:38:35.476Z,26.85
2016-05-24T09:39:35.479Z,26.84
2016-05-24T09:40:35.482Z,26.87
2016-05-24T09:41:35.515Z,26.84
2016-05-24T09:42:35.502Z,26.82
2016-05-24T09:43:35.505Z,26.82
2016-05-24T09:44:35.507Z,26.85
2016-05-24T09:45:40.120Z,26.88
2016-05-24T09:46:35.700Z,26.87
2016-05-24T09:47:35.548Z,26.84
2016-05-24T09:48:35.566Z,26.87
2016-05-24T09:49:35.567Z,26.87
2016-05-24T09:50:35.556Z,26.81
2016-05-24T09:51:35.636Z,26.8
2016-05-24T09:52:35.420Z,26.84
2016-05-24T09:53:35.423Z,26.81
2016-05-24T09:54:35.581Z,26.89
2016-05-24T09:55:35.537Z,26.81
2016-05-24T09:56:35.665Z,26.85
2016-05-24T09:57:35.605Z,26.88
2016-05-24T09:58:35.467Z,26.85
2016-05-24T09:59:35.611Z,26.84
2016-05-24T10:00:35.598Z,26.76
2016-05-24T10:01:35.647Z,26.84
2016-05-24T10:02:35.713Z,26.85
2016-05-24T10:03:35.497Z,26.85
2016-05-24T10:04:35.671Z,26.84
2016-05-24T10:05:35.517Z,26.85
2016-05-24T10:06:35.690Z,26.87
2016-05-24T10:07:35.715Z,26.89
2016-05-24T10:08:35.676Z,26.85
2016-05-24T10:09:35.623Z,26.8
2016-05-24T10:10:35.804Z,26.82
2016-05-24T10:11:35.819Z,26.81
2016-05-24T10:12:35.830Z,26.82
2016-05-24T10:13:35.841Z,26.77
2016-05-24T10:14:36.851Z,26.84
2016-05-24T10:15:36.223Z,26.8
2016-05-24T10:16:35.730Z,26.77
2016-05-24T10:17:35.986Z,26.73
2016-05-24T10:18:35.913Z,26.77
2016-05-24T10:19:35.918Z,26.77
2016-05-24T10:20:35.783Z,26.75
2016-05-24T10:21:38.037Z,26.73
2016-05-24T10:22:35.791Z,26.72
2016-05-24T10:23:35.967Z,26.75
2016-05-24T10:24:35.970Z,26.75
2016-05-24T10:25:35.661Z,26.77
2016-05-24T10:26:38.306Z,26.7
2016-05-24T10:27:35.934Z,26.72
2016-05-24T10:28:36.000Z,26.66
2016-05-24T10:29:35.924Z,26.69
2016-05-24T10:30:36.021Z,26.72
2016-05-24T10:31:35.868Z,26.8
2016-05-24T10:32:36.027Z,26.65
2016-05-24T10:33:35.889Z,26.69
2016-05-24T10:34:35.892Z,26.72
2016-05-24T10:35:35.894Z,26.65
2016-05-24T10:36:36.053Z,26.75
2016-05-24T10:37:36.071Z,26.77
2016-05-24T10:38:36.074Z,26.72
2016-05-24T10:39:36.076Z,26.8
2016-05-24T10:40:36.158Z,26.75
2016-05-24T10:41:36.082Z,26.67
2016-05-24T10:42:36.131Z,26.77
2016-05-24T10:43:36.212Z,26.75
2016-05-24T10:44:36.122Z,26.69
2016-05-24T10:45:35.967Z,26.62
2016-05-24T10:46:35.955Z,26.62
2016-05-24T10:47:35.973Z,26.72
2016-05-24T10:48:36.133Z,26.69
2016-05-24T10:49:36.119Z,26.73
2016-05-24T10:50:36.169Z,26.7
2016-05-24T10:51:36.156Z,26.67
2016-05-24T10:52:36.158Z,26.66
2016-05-24T10:53:36.177Z,26.7
2016-05-24T10:54:36.023Z,26.69
2016-05-24T10:55:36.182Z,26.62
2016-05-24T10:56:36.185Z,26.67
2016-05-24T10:57:36.204Z,26.7
2016-05-24T10:58:36.206Z,26.77
2016-05-24T10:59:36.052Z,26.63
2016-05-24T11:00:36.336Z,26.69
2016-05-24T11:01:36.230Z,26.69
2016-05-24T11:02:36.076Z,26.57
2016-05-24T11:03:36.235Z,26.7
2016-05-24T11:04:36.316Z,26.75
2016-05-24T11:05:36.100Z,26.73
2016-05-24T11:06:36.118Z,26.7
2016-05-24T11:07:36.137Z,26.67
2016-05-24T11:08:36.295Z,26.67
2016-05-24T11:09:36.282Z,26.69
2016-05-24T11:10:36.379Z,26.58
2016-05-24T11:11:36.147Z,26.66
2016-05-24T11:12:36.369Z,26.63
2016-05-24T11:13:36.324Z,26.66
2016-05-24T11:14:36.328Z,26.73
2016-05-24T11:15:36.595Z,26.76
2016-05-24T11:16:36.332Z,26.7
2016-05-24T11:17:36.351Z,26.76
2016-05-24T11:18:36.181Z,26.76
2016-05-24T11:19:36.200Z,26.75
2016-05-24T11:20:36.375Z,26.81
2016-05-24T11:21:36.283Z,26.76
2016-05-24T11:22:36.380Z,26.84
2016-05-24T11:23:36.227Z,26.82
2016-05-24T11:24:36.447Z,26.81
2016-05-24T11:25:36.247Z,26.82
2016-05-24T11:26:36.407Z,26.82
2016-05-24T11:27:36.440Z,26.84
2016-05-24T11:28:36.365Z,26.85
2016-05-24T11:29:36.430Z,26.73
2016-05-24T11:30:36.543Z,26.8
2016-05-24T11:31:36.435Z,26.8
2016-05-24T11:32:36.516Z,26.75
2016-05-24T11:33:36.457Z,26.7
2016-05-24T11:34:36.507Z,26.72
2016-05-24T11:35:36.477Z,26.73
2016-05-24T11:36:36.479Z,26.7
2016-05-24T11:37:36.561Z,26.65
2016-05-24T11:38:36.501Z,26.67
2016-05-24T11:39:36.192Z,26.67
2016-05-24T11:40:36.522Z,26.65
2016-05-24T11:41:36.509Z,26.67
2016-05-24T11:42:36.371Z,26.67
2016-05-24T11:43:36.514Z,26.75
2016-05-24T11:44:36.517Z,26.66
2016-05-24T11:45:36.644Z,26.66
2016-05-24T11:46:36.444Z,26.63
2016-05-24T11:47:36.572Z,26.67
2016-05-24T11:48:36.559Z,26.65
2016-05-24T11:49:36.406Z,26.63
2016-05-24T11:50:36.581Z,26.7
2016-05-24T11:51:36.582Z,26.66
2016-05-24T11:52:36.430Z,26.62
2016-05-24T11:53:36.589Z,26.66
2016-05-24T11:54:36.591Z,26.67
2016-05-24T11:55:36.453Z,26.7
2016-05-24T11:56:36.612Z,26.69
2016-05-24T11:57:36.615Z,26.66
2016-05-24T11:58:36.633Z,26.72
2016-05-24T11:59:36.635Z,26.7
2016-05-24T12:00:36.748Z,26.62
2016-05-24T12:01:36.657Z,26.73
2016-05-24T12:02:36.534Z,26.72
2016-05-24T12:03:36.662Z,26.67
2016-05-24T12:04:36.680Z,26.67
2016-05-24T12:05:36.683Z,26.72
2016-05-24T12:06:36.685Z,26.8
2016-05-24T12:07:36.688Z,26.66
2016-05-24T12:08:36.707Z,26.73
2016-05-24T12:09:36.554Z,26.63
2016-05-24T12:10:36.712Z,26.65
2016-05-24T12:11:36.731Z,26.65
2016-05-24T12:12:36.561Z,26.7
2016-05-24T12:13:36.736Z,26.69
2016-05-24T12:14:36.739Z,26.7
2016-05-24T12:15:36.772Z,26.63
2016-05-24T12:16:36.791Z,26.63
2016-05-24T12:17:36.590Z,26.52
2016-05-24T12:18:36.797Z,26.55
2016-05-24T12:19:36.767Z,26.55
2016-05-24T12:20:36.785Z,26.58
2016-05-24T12:21:36.789Z,26.55
2016-05-24T12:22:36.791Z,26.5
2016-05-24T12:23:36.810Z,26.48
2016-05-24T12:24:36.687Z,26.44
2016-05-24T12:25:36.925Z,26.54
2016-05-24T12:26:36.818Z,26.57
2016-05-24T12:27:36.835Z,26.57
2016-05-24T12:28:36.901Z,26.51
2016-05-24T12:29:36.841Z,26.58
2016-05-24T12:30:37.329Z,26.6
2016-05-24T12:31:36.769Z,26.48
2016-05-24T12:32:36.865Z,26.6
2016-05-24T12:33:36.868Z,26.48
2016-05-24T12:34:36.886Z,26.48
2016-05-24T12:35:36.889Z,26.47
2016-05-24T12:36:36.954Z,26.51
2016-05-24T12:37:36.910Z,26.51
2016-05-24T12:38:36.912Z,26.51
2016-05-24T12:39:36.915Z,26.47
2016-05-24T12:40:36.934Z,26.48
2016-05-24T12:41:36.920Z,26.57
2016-05-24T12:42:36.779Z,26.52
2016-05-24T12:43:36.798Z,26.62
2016-05-24T12:44:36.800Z,26.65
2016-05-24T12:45:37.151Z,26.55
2016-05-24T12:46:36.963Z,26.52
2016-05-24T12:47:36.981Z,26.52
2016-05-24T12:48:36.983Z,26.65
2016-05-24T12:49:36.986Z,26.72
2016-05-24T12:50:36.989Z,26.67
2016-05-24T12:51:36.836Z,26.66
2016-05-24T12:52:37.011Z,26.63
2016-05-24T12:53:36.856Z,26.66
2016-05-24T12:54:37.016Z,26.65
2016-05-24T12:55:37.034Z,26.7
2016-05-24T12:56:37.114Z,26.69